createdAt,value
2018-10-02T00:00:22.962Z,86.90
2018-10-02T00:01:25.809Z,86.53
2018-10-02T00:02:29.070Z,86.64
2018-10-02T00:03:32.446Z,86.72
2018-10-02T00:04:35.544Z,86.83
2018-10-02T00:05:38.290Z,86.45
2018-10-02T00:06:41.484Z,86.53
2018-10-02T00:07:44.282Z,86.69
2018-10-02T00:08:47.136Z,86.63
2018-10-02T00:09:49.951Z,86.65
2018-10-02T00:10:57.743Z,87.15
2018-10-02T00:12:05.517Z,87.37
2018-10-02T00:13:13.357Z,87.47
2018-10-02T00:14:21.129Z,87.50
2018-10-02T00:15:24.203Z,87.23
2018-10-02T00:16:27.081Z,87.02
2018-10-02T00:17:29.843Z,86.90
2018-10-02T00:18:32.594Z,86.91
2018-10-02T00:19:35.524Z,87.42
2018-10-02T00:20:38.321Z,87.70
2018-10-02T00:21:40.971Z,87.62
2018-10-02T00:22:43.610Z,88.16
2018-10-02T00:23:46.432Z,87.90
2018-10-02T00:24:49.174Z,88.38
2018-10-02T00:25:52.194Z,88.29
2018-10-02T00:26:55.116Z,88.38
2018-10-02T00:27:58.985Z,88.34
2018-10-02T00:29:01.745Z,88.49
2018-10-02T00:30:04.854Z,88.23
2018-10-02T00:31:07.550Z,88.45
2018-10-02T00:32:10.659Z,88.41
2018-10-02T00:33:13.283Z,88.18
2018-10-02T00:34:16.982Z,87.78
2018-10-02T00:35:19.703Z,87.80
2018-10-02T00:36:22.709Z,87.64
2018-10-02T00:37:25.394Z,87.60
2018-10-02T00:38:28.514Z,87.44
2018-10-02T00:39:31.358Z,86.94
2018-10-02T00:40:34.410Z,87.12
2018-10-02T00:41:37.428Z,86.95
2018-10-02T00:42:40.404Z,87.06
2018-10-02T00:43:44.629Z,86.80
2018-10-02T00:44:47.726Z,86.57
2018-10-02T00:45:50.750Z,86.75
2018-10-02T00:46:53.871Z,86.83
2018-10-02T00:47:56.772Z,86.53
2018-10-02T00:48:59.870Z,86.65
2018-10-02T00:50:02.845Z,86.74
2018-10-02T00:51:06.366Z,86.67
2018-10-02T00:52:09.284Z,86.79
2018-10-02T00:53:12.113Z,86.88
2018-10-02T00:54:14.975Z,87.25
2018-10-02T00:55:17.798Z,86.93
2018-10-02T00:56:20.856Z,87.09
2018-10-02T00:57:24.877Z,87.48
2018-10-02T00:58:27.616Z,87.47
2018-10-02T00:59:30.306Z,87.42
2018-10-02T01:00:33.205Z,87.91
2018-10-02T01:01:35.868Z,88.04
2018-10-02T01:02:39.064Z,88.26
2018-10-02T01:03:42.741Z,88.02
2018-10-02T01:04:45.460Z,87.94
2018-10-02T01:05:48.334Z,87.96
2018-10-02T01:06:51.705Z,88.07
2018-10-02T01:07:54.475Z,87.86
2018-10-02T01:08:57.239Z,87.83
2018-10-02T01:10:00.532Z,87.94
2018-10-02T01:11:03.320Z,87.88
2018-10-02T01:12:06.455Z,87.84
2018-10-02T01:13:09.185Z,88.26
2018-10-02T01:14:12.512Z,88.04
2018-10-02T01:15:15.368Z,87.95
2018-10-02T01:16:18.472Z,88.05
2018-10-02T01:17:21.252Z,88.70
2018-10-02T01:18:24.025Z,89.44
2018-10-02T01:19:27.432Z,89.43
2018-10-02T01:20:30.205Z,90.07
2018-10-02T01:21:33.231Z,89.62
2018-10-02T01:22:36.386Z,89.20
2018-10-02T01:23:39.579Z,89.07
2018-10-02T01:24:42.382Z,89.25
2018-10-02T01:25:45.661Z,89.26
2018-10-02T01:26:49.012Z,89.44
2018-10-02T01:27:51.728Z,89.05
2018-10-02T01:28:54.752Z,89.27
2018-10-02T01:29:57.497Z,89.20
2018-10-02T01:31:00.200Z,89.68
2018-10-02T01:32:02.860Z,89.49
2018-10-02T01:33:05.859Z,89.68
2018-10-02T01:34:08.975Z,89.55
2018-10-02T01:35:11.986Z,89.52
2018-10-02T01:36:15.261Z,89.30
2018-10-02T01:37:17.888Z,89.77
2018-10-02T01:38:20.741Z,89.39
2018-10-02T01:39:23.708Z,89.42
2018-10-02T01:40:26.397Z,89.51
2018-10-02T01:41:29.418Z,89.49
2018-10-02T01:42:32.439Z,89.58
2018-10-02T01:43:35.328Z,89.85
2018-10-02T01:44:38.264Z,89.84
2018-10-02T01:45:40.932Z,89.70
2018-10-02T01:46:43.585Z,89.53
2018-10-02T01:47:46.562Z,89.48
2018-10-02T01:48:49.226Z,89.72
2018-10-02T01:50:01.792Z,90.56
2018-10-02T01:51:06.665Z,89.87
2018-10-02T01:52:09.280Z,90.13
2018-10-02T01:53:11.905Z,90.72
2018-10-02T01:54:14.529Z,90.33
2018-10-02T01:55:17.210Z,90.11
2018-10-02T01:56:19.987Z,89.67
2018-10-02T01:57:22.743Z,89.92
2018-10-02T01:58:25.462Z,90.24
2018-10-02T01:59:28.404Z,89.90
2018-10-02T02:00:31.642Z,89.88
2018-10-02T02:01:34.437Z,90.06
2018-10-02T02:02:37.468Z,90.20
2018-10-02T02:03:40.383Z,89.75
2018-10-02T02:04:43.101Z,89.93
2018-10-02T02:05:46.140Z,90.00
2018-10-02T02:06:49.519Z,90.49
2018-10-02T02:07:52.360Z,90.19
2018-10-02T02:08:56.650Z,90.76
2018-10-02T02:09:59.271Z,90.75
2018-10-02T02:11:01.898Z,90.75
2018-10-02T02:12:04.528Z,90.61
2018-10-02T02:13:07.437Z,90.07
2018-10-02T02:14:10.044Z,89.82
2018-10-02T02:15:12.659Z,90.63
2018-10-02T02:16:15.331Z,90.91
2018-10-02T02:17:17.985Z,91.10
2018-10-02T02:18:20.615Z,90.47
2018-10-02T02:19:23.544Z,90.66
2018-10-02T02:20:26.182Z,90.54
2018-10-02T02:21:28.827Z,90.38
2018-10-02T02:22:31.489Z,90.30
2018-10-02T02:23:34.129Z,90.87
2018-10-02T02:24:36.771Z,90.77
2018-10-02T02:25:40.298Z,91.00
2018-10-02T02:26:42.978Z,91.14
2018-10-02T02:27:45.589Z,91.05
2018-10-02T02:28:48.242Z,90.98
2018-10-02T02:29:51.117Z,90.85
2018-10-02T02:30:53.756Z,90.95
2018-10-02T02:31:56.850Z,90.71
2018-10-02T02:32:59.669Z,90.40
2018-10-02T02:34:03.102Z,90.29
2018-10-02T02:35:05.747Z,90.98
2018-10-02T02:36:08.431Z,91.12
2018-10-02T02:37:11.598Z,90.91
2018-10-02T02:38:14.664Z,90.63
2018-10-02T02:39:17.280Z,91.03
2018-10-02T02:40:19.928Z,90.46
2018-10-02T02:41:22.574Z,91.06
2018-10-02T02:42:25.993Z,90.85
2018-10-02T02:43:28.627Z,90.66
2018-10-02T02:44:32.317Z,91.33
2018-10-02T02:45:36.727Z,91.57
2018-10-02T02:46:39.555Z,91.66
2018-10-02T02:47:47.387Z,91.46
2018-10-02T02:48:55.068Z,91.87
2018-10-02T02:50:03.173Z,92.28
2018-10-02T02:51:11.124Z,92.36
2018-10-02T02:52:18.499Z,92.48
2018-10-02T02:53:22.794Z,92.50
2018-10-02T02:54:26.606Z,92.69
2018-10-02T02:55:29.272Z,92.17
2018-10-02T02:56:32.072Z,92.99
2018-10-02T02:57:35.044Z,92.73
2018-10-02T02:58:37.725Z,92.92
2018-10-02T02:59:40.356Z,93.18
2018-10-02T03:00:43.636Z,93.17
2018-10-02T03:01:46.252Z,93.47
2018-10-02T03:02:48.878Z,93.46
2018-10-02T03:03:51.868Z,93.47
2018-10-02T03:04:54.488Z,93.46
2018-10-02T03:05:57.087Z,93.74
2018-10-02T03:06:59.717Z,93.72
2018-10-02T03:08:03.338Z,93.52
2018-10-02T03:09:05.948Z,93.68
2018-10-02T03:10:08.947Z,93.22
2018-10-02T03:11:12.518Z,93.44
2018-10-02T03:12:15.157Z,93.60
2018-10-02T03:13:17.784Z,93.93
2018-10-02T03:14:20.402Z,93.86
2018-10-02T03:15:23.080Z,93.92
2018-10-02T03:16:26.159Z,93.75
2018-10-02T03:17:28.826Z,93.46
2018-10-02T03:18:31.481Z,92.97
2018-10-02T03:19:34.643Z,93.20
2018-10-02T03:20:37.227Z,92.89
2018-10-02T03:21:39.901Z,92.76
2018-10-02T03:22:42.953Z,92.29
2018-10-02T03:23:45.578Z,92.80
2018-10-02T03:24:48.209Z,92.80
2018-10-02T03:25:50.815Z,92.75
2018-10-02T03:26:53.456Z,92.81
2018-10-02T03:27:56.159Z,92.54
2018-10-02T03:28:58.800Z,92.63
2018-10-02T03:30:02.469Z,92.87
2018-10-02T03:31:05.280Z,92.69
2018-10-02T03:32:07.902Z,92.26
2018-10-02T03:33:10.516Z,92.51
2018-10-02T03:34:13.748Z,92.73
2018-10-02T03:35:16.364Z,92.48
2018-10-02T03:36:19.017Z,92.57
2018-10-02T03:37:24.604Z,92.82
2018-10-02T03:38:27.243Z,92.48
2018-10-02T03:39:29.948Z,92.42
2018-10-02T03:40:33.046Z,92.81
2018-10-02T03:41:35.668Z,92.36
2018-10-02T03:42:38.281Z,92.62
2018-10-02T03:43:40.895Z,92.71
2018-10-02T03:44:43.549Z,93.05
2018-10-02T03:45:46.197Z,92.87
2018-10-02T03:46:49.300Z,93.13
2018-10-02T03:47:52.578Z,93.68
2018-10-02T03:48:55.207Z,93.23
2018-10-02T03:49:57.859Z,93.20
2018-10-02T03:51:00.513Z,93.74
2018-10-02T03:52:03.258Z,93.26
2018-10-02T03:53:06.374Z,93.62
2018-10-02T03:54:09.020Z,93.73
2018-10-02T03:55:11.658Z,93.71
2018-10-02T03:56:14.259Z,93.52
2018-10-02T03:57:16.863Z,93.20
2018-10-02T03:58:19.690Z,93.25
2018-10-02T03:59:22.754Z,93.62
2018-10-02T04:00:25.365Z,93.37
2018-10-02T04:01:28.786Z,93.69
2018-10-02T04:02:31.459Z,93.79
2018-10-02T04:03:34.163Z,93.60
2018-10-02T04:04:36.856Z,93.52
2018-10-02T04:05:39.959Z,93.30
2018-10-02T04:06:42.579Z,93.61
2018-10-02T04:07:45.260Z,93.21
2018-10-02T04:08:48.879Z,93.14
2018-10-02T04:09:51.535Z,93.24
2018-10-02T04:10:54.251Z,92.86
2018-10-02T04:11:57.178Z,92.78
2018-10-02T04:13:00.537Z,93.28
2018-10-02T04:14:03.169Z,93.31
2018-10-02T04:15:05.834Z,93.50
2018-10-02T04:16:09.280Z,93.35
2018-10-02T04:17:12.263Z,93.52
2018-10-02T04:18:15.878Z,93.16
2018-10-02T04:19:19.748Z,92.98
2018-10-02T04:20:22.424Z,93.06
2018-10-02T04:21:36.158Z,92.88
2018-10-02T04:22:39.653Z,93.04
2018-10-02T04:23:42.339Z,92.94
2018-10-02T04:24:45.360Z,93.01
2018-10-02T04:25:48.007Z,93.10
2018-10-02T04:26:50.656Z,93.13
2018-10-02T04:27:54.214Z,93.31
2018-10-02T04:28:56.944Z,93.09
2018-10-02T04:29:59.598Z,93.09
2018-10-02T04:31:03.355Z,92.95
2018-10-02T04:32:05.994Z,93.16
2018-10-02T04:33:08.720Z,93.05
2018-10-02T04:34:11.425Z,92.79
2018-10-02T04:35:14.792Z,92.44
2018-10-02T04:36:17.419Z,92.95
2018-10-02T04:37:21.077Z,92.66
2018-10-02T04:38:23.704Z,92.61
2018-10-02T04:39:26.633Z,92.90
2018-10-02T04:40:29.465Z,93.12
2018-10-02T04:41:32.110Z,92.89
2018-10-02T04:42:35.429Z,92.96
2018-10-02T04:43:40.298Z,92.81
2018-10-02T04:44:44.300Z,93.01
2018-10-02T04:45:47.186Z,92.75
2018-10-02T04:46:49.805Z,92.59
2018-10-02T04:47:54.200Z,92.85
2018-10-02T04:48:57.444Z,92.76
2018-10-02T04:50:00.489Z,92.76
2018-10-02T04:51:03.300Z,92.67
2018-10-02T04:52:05.895Z,92.77
2018-10-02T04:53:08.536Z,92.68
2018-10-02T04:54:11.163Z,92.83
2018-10-02T04:55:14.753Z,92.96
2018-10-02T04:56:17.842Z,92.65
2018-10-02T04:57:20.477Z,92.50
2018-10-02T04:58:23.726Z,92.47
2018-10-02T04:59:26.527Z,92.48
2018-10-02T05:00:29.167Z,92.20
2018-10-02T05:01:31.934Z,92.08
2018-10-02T05:02:35.051Z,92.25
2018-10-02T05:03:37.833Z,92.19
2018-10-02T05:04:40.582Z,92.10
2018-10-02T05:05:43.353Z,91.81
2018-10-02T05:06:46.788Z,91.98
2018-10-02T05:07:49.498Z,91.86
2018-10-02T05:08:53.054Z,91.76
2018-10-02T05:09:56.657Z,91.81
2018-10-02T05:11:01.233Z,91.54
2018-10-02T05:12:04.561Z,91.61
2018-10-02T05:13:07.911Z,91.41
2018-10-02T05:14:11.293Z,91.72
2018-10-02T05:15:15.637Z,91.58
2018-10-02T05:16:18.472Z,91.59
2018-10-02T05:17:21.277Z,91.28
2018-10-02T05:18:24.728Z,91.59
2018-10-02T05:19:27.648Z,91.10
2018-10-02T05:20:30.612Z,91.06
2018-10-02T05:21:33.766Z,91.17
2018-10-02T05:22:36.769Z,91.03
2018-10-02T05:23:39.473Z,90.82
2018-10-02T05:24:42.325Z,90.79
2018-10-02T05:25:45.013Z,90.93
2018-10-02T05:26:47.910Z,90.71
2018-10-02T05:27:52.159Z,90.59
2018-10-02T05:28:58.528Z,90.41
2018-10-02T05:30:02.766Z,90.42
2018-10-02T05:31:05.802Z,90.00
2018-10-02T05:32:08.499Z,90.04
2018-10-02T05:46:20.978Z,89.82
2018-10-02T05:47:24.650Z,89.75
2018-10-02T05:48:27.370Z,89.98
2018-10-02T05:49:30.097Z,90.05
2018-10-02T05:50:33.426Z,89.91
2018-10-02T05:51:36.635Z,89.72
2018-10-02T05:52:39.496Z,89.13
2018-10-02T05:53:44.070Z,89.20
2018-10-02T05:54:46.788Z,89.63
2018-10-02T05:55:49.510Z,89.53
2018-10-02T05:56:52.201Z,89.25
2018-10-02T05:57:55.311Z,89.53
2018-10-02T05:58:58.038Z,89.04
2018-10-02T06:00:00.797Z,89.12
2018-10-02T06:01:06.032Z,89.20
2018-10-02T06:02:08.794Z,89.17
2018-10-02T06:03:12.682Z,88.96
2018-10-02T06:04:17.524Z,89.04
2018-10-02T06:05:20.210Z,89.27
2018-10-02T06:06:23.869Z,89.24
2018-10-02T06:07:26.722Z,89.61
2018-10-02T06:08:29.643Z,89.50
2018-10-02T06:09:32.689Z,89.24
2018-10-02T06:10:36.704Z,88.75
2018-10-02T06:11:39.695Z,88.86
2018-10-02T06:12:46.234Z,88.60
2018-10-02T06:13:49.553Z,88.23
2018-10-02T06:14:56.121Z,88.22
2018-10-02T06:15:58.852Z,87.96
2018-10-02T06:17:02.240Z,87.83
2018-10-02T06:18:07.139Z,88.15
2018-10-02T06:19:09.953Z,87.74
2018-10-02T06:20:13.415Z,87.55
2018-10-02T06:21:16.386Z,87.66
2018-10-02T06:22:19.656Z,87.17
2018-10-02T06:23:23.913Z,87.65
2018-10-02T06:24:26.576Z,87.37
2018-10-02T06:25:30.110Z,87.39
2018-10-02T06:26:35.757Z,87.27
2018-10-02T06:27:38.620Z,87.49
2018-10-02T06:28:41.304Z,87.09
2018-10-02T06:29:44.371Z,87.18
2018-10-02T06:30:48.435Z,86.97
2018-10-02T06:31:51.629Z,87.27
2018-10-02T06:32:54.855Z,87.23
2018-10-02T06:34:00.348Z,86.69
2018-10-02T06:35:03.928Z,86.60
2018-10-02T06:36:06.920Z,86.66
2018-10-02T06:37:10.465Z,86.41
2018-10-02T06:38:13.307Z,86.21
2018-10-02T06:39:19.277Z,86.50
2018-10-02T06:40:23.553Z,86.19
2018-10-02T06:41:27.066Z,86.14
2018-10-02T06:42:30.331Z,86.04
2018-10-02T06:43:34.485Z,85.76
2018-10-02T06:44:39.737Z,85.68
2018-10-02T06:45:42.474Z,85.89
2018-10-02T06:46:45.494Z,86.03
2018-10-02T06:47:48.209Z,85.79
2018-10-02T06:48:51.249Z,86.11
2018-10-02T06:49:54.058Z,86.31
2018-10-02T06:50:56.928Z,85.92
2018-10-02T06:51:59.709Z,86.37
2018-10-02T06:53:02.787Z,86.28
2018-10-02T06:54:07.007Z,86.89
2018-10-02T06:55:10.219Z,86.98
2018-10-02T06:56:13.485Z,86.57
2018-10-02T06:57:16.249Z,86.56
2018-10-02T06:58:19.949Z,86.73
2018-10-02T06:59:23.474Z,87.46
2018-10-02T07:00:26.431Z,87.21
2018-10-02T07:01:29.660Z,86.87
2018-10-02T07:02:33.755Z,87.19
2018-10-02T07:03:37.635Z,87.11
2018-10-02T07:04:41.324Z,87.23
2018-10-02T07:05:45.588Z,87.32
2018-10-02T07:06:49.283Z,87.41
2018-10-02T07:07:55.081Z,87.29
2018-10-02T07:08:59.177Z,87.61
2018-10-02T07:10:01.898Z,87.86
2018-10-02T07:11:07.078Z,88.02
2018-10-02T07:12:10.501Z,87.97
2018-10-02T07:13:15.118Z,88.08
2018-10-02T07:14:18.851Z,87.44
2018-10-02T07:15:22.452Z,88.25
2018-10-02T07:16:26.241Z,87.71
2018-10-02T07:17:30.747Z,87.70
2018-10-02T07:18:34.298Z,87.75
2018-10-02T07:19:40.686Z,87.82
2018-10-02T07:20:43.871Z,88.00
2018-10-02T07:21:49.124Z,87.40
2018-10-02T07:22:53.115Z,87.76
2018-10-02T07:23:58.640Z,87.42
2018-10-02T07:25:02.691Z,87.46
2018-10-02T07:26:06.736Z,87.78
2018-10-02T07:27:09.601Z,87.42
2018-10-02T07:28:14.445Z,87.37
2018-10-02T07:29:19.187Z,87.40
2018-10-02T07:30:21.974Z,87.13
2018-10-02T07:31:24.734Z,87.74
2018-10-02T07:32:30.536Z,87.71
2018-10-02T07:33:36.687Z,87.40
2018-10-02T07:34:40.755Z,87.21
2018-10-02T07:35:46.195Z,88.00
2018-10-02T07:36:54.428Z,87.39
2018-10-02T07:37:57.207Z,87.16
2018-10-02T07:39:01.286Z,87.58
2018-10-02T07:40:05.328Z,87.82
2018-10-02T07:41:10.573Z,87.97
2018-10-02T07:42:14.837Z,87.73
2018-10-02T07:43:19.841Z,87.42
2018-10-02T07:44:22.602Z,87.71
2018-10-02T07:45:25.822Z,87.86
2018-10-02T07:46:29.380Z,87.67
2018-10-02T07:47:34.599Z,88.13
2018-10-02T07:48:41.221Z,87.98
2018-10-02T07:49:49.443Z,87.28
2018-10-02T07:52:11.852Z,87.62
2018-10-02T07:53:15.338Z,88.19
2018-10-02T07:54:18.639Z,88.29
2018-10-02T07:55:21.995Z,88.82
2018-10-02T07:56:24.926Z,88.70
2018-10-02T07:57:29.718Z,88.39
2018-10-02T07:58:32.752Z,88.38
2018-10-02T07:59:37.200Z,88.47
2018-10-02T08:00:42.756Z,88.19
2018-10-02T08:01:45.843Z,88.90
2018-10-02T08:02:49.189Z,88.65
2018-10-02T08:05:35.351Z,88.78
2018-10-02T08:06:40.331Z,88.66
2018-10-02T08:07:44.243Z,88.92
2018-10-02T08:08:47.938Z,88.72
2018-10-02T08:09:51.294Z,88.88
2018-10-02T08:10:56.104Z,89.06
2018-10-02T08:12:00.301Z,88.99
2018-10-02T08:13:04.478Z,89.15
2018-10-02T08:14:09.953Z,88.88
2018-10-02T08:15:13.519Z,89.17
2018-10-02T08:16:16.330Z,89.33
2018-10-02T08:17:26.790Z,89.31
2018-10-02T08:18:32.402Z,89.20
2018-10-02T08:19:37.302Z,88.93
2018-10-02T08:20:40.346Z,89.28
2018-10-02T08:21:42.967Z,89.63
2018-10-02T08:24:04.816Z,89.08
2018-10-02T08:25:08.925Z,89.41
2018-10-02T08:26:12.229Z,89.24
2018-10-02T08:28:24.732Z,89.68
2018-10-02T08:29:35.878Z,89.61
2018-10-02T08:30:40.393Z,89.59
2018-10-02T08:31:43.987Z,89.97
2018-10-02T08:32:46.783Z,89.66
2018-10-02T08:33:50.153Z,90.72
2018-10-02T08:34:55.785Z,91.35
2018-10-02T08:36:04.418Z,91.71
2018-10-02T08:37:08.321Z,91.41
2018-10-02T08:38:13.695Z,91.65
2018-10-02T08:39:16.435Z,92.20
2018-10-02T08:40:19.765Z,92.25
2018-10-02T08:41:22.720Z,91.95
2018-10-02T08:42:31.410Z,92.40
2018-10-02T08:43:37.684Z,92.38
2018-10-02T08:44:41.411Z,92.77
2018-10-02T08:45:44.829Z,92.59
2018-10-02T08:46:49.170Z,92.54
2018-10-02T08:47:53.460Z,92.57
2018-10-02T08:48:58.490Z,92.29
2018-10-02T08:50:01.749Z,92.30
2018-10-02T08:51:05.209Z,93.09
2018-10-02T08:52:08.004Z,93.24
2018-10-02T08:53:11.434Z,92.92
2018-10-02T08:54:19.274Z,93.09
2018-10-02T08:55:23.429Z,92.78
2018-10-02T08:56:26.952Z,92.92
2018-10-02T08:57:30.301Z,92.98
2018-10-02T08:58:33.680Z,93.40
2018-10-02T08:59:38.124Z,93.77
2018-10-02T09:00:42.411Z,93.53
2018-10-02T09:01:47.996Z,92.96
2018-10-02T09:02:52.923Z,93.35
2018-10-02T09:03:56.494Z,93.93
2018-10-02T09:05:00.831Z,94.00
2018-10-02T09:06:04.563Z,93.91
2018-10-02T09:07:07.664Z,94.03
2018-10-02T09:08:11.285Z,94.36
2018-10-02T09:09:14.590Z,94.49
2018-10-02T09:10:21.708Z,94.89
2018-10-02T09:11:25.743Z,94.76
2018-10-02T09:12:29.689Z,95.07
2018-10-02T09:13:35.591Z,94.60
2018-10-02T09:14:41.693Z,94.55
2018-10-02T09:15:50.625Z,94.65
2018-10-02T09:16:54.291Z,95.00
2018-10-02T09:17:57.069Z,94.67
2018-10-02T09:19:01.314Z,94.90
2018-10-02T09:20:06.468Z,95.31
2018-10-02T09:21:10.450Z,94.93
2018-10-02T09:22:13.317Z,94.97
2018-10-02T09:23:16.037Z,94.89
2018-10-02T09:24:18.771Z,95.50
2018-10-02T09:25:22.149Z,95.70
2018-10-02T09:26:26.273Z,95.42
2018-10-02T09:27:30.382Z,95.22
2018-10-02T09:28:34.578Z,95.76
2018-10-02T09:29:43.292Z,95.89
2018-10-02T09:30:52.411Z,95.72
2018-10-02T09:32:02.684Z,95.73
2018-10-02T09:33:10.973Z,96.38
2018-10-02T09:34:18.937Z,96.05
2018-10-02T09:35:26.749Z,95.92
2018-10-02T09:36:36.969Z,96.21
2018-10-02T09:37:45.240Z,96.37
2018-10-02T09:38:53.261Z,96.49
2018-10-02T09:40:03.028Z,95.92
2018-10-02T09:41:11.388Z,96.03
2018-10-02T09:42:19.180Z,96.70
2018-10-02T09:43:26.335Z,96.08
2018-10-02T09:44:30.472Z,96.27
2018-10-02T09:45:40.687Z,95.80
2018-10-02T09:46:46.837Z,95.89
2018-10-02T09:47:52.627Z,96.11
2018-10-02T09:50:05.075Z,96.42
2018-10-02T09:51:09.412Z,96.35
2018-10-02T09:52:16.547Z,96.36
2018-10-02T09:53:20.478Z,96.26
2018-10-02T09:54:25.130Z,96.33
2018-10-02T09:55:39.327Z,96.29
2018-10-02T09:56:45.363Z,96.61
2018-10-02T09:57:49.322Z,96.40
2018-10-02T09:58:55.671Z,96.09
2018-10-02T09:59:58.502Z,96.25
2018-10-02T10:01:08.225Z,96.52
2018-10-02T10:02:15.904Z,96.46
2018-10-02T10:03:18.730Z,96.36
2018-10-02T10:04:24.661Z,96.21
2018-10-02T10:05:28.222Z,96.35
2018-10-02T10:06:33.301Z,96.72
2018-10-02T10:07:37.709Z,96.41
2018-10-02T10:08:40.748Z,96.45
2018-10-02T10:09:43.697Z,96.02
2018-10-02T10:10:47.826Z,96.27
2018-10-02T10:11:53.619Z,96.03
2018-10-02T10:12:56.740Z,96.20
2018-10-02T10:14:03.708Z,96.34
2018-10-02T10:15:13.083Z,96.18
2018-10-02T10:16:20.754Z,96.59
2018-10-02T10:18:32.720Z,96.46
2018-10-02T10:20:43.761Z,96.77
2018-10-02T10:21:48.381Z,96.08
2018-10-02T10:22:51.958Z,96.49
2018-10-02T10:23:55.722Z,96.62
2018-10-02T10:24:59.323Z,96.67
2018-10-02T10:26:02.635Z,96.67
2018-10-02T10:27:05.405Z,96.63
2018-10-02T10:28:09.973Z,96.03
2018-10-02T10:29:12.702Z,96.04
2018-10-02T10:30:15.382Z,96.15
2018-10-02T10:31:22.187Z,96.39
2018-10-02T10:32:27.550Z,96.71
2018-10-02T10:45:29.908Z,96.61
2018-10-02T10:46:32.828Z,96.62
2018-10-02T10:47:36.457Z,96.29
2018-10-02T10:48:43.774Z,96.72
2018-10-02T10:49:49.432Z,96.62
2018-10-02T10:50:53.379Z,96.47
2018-10-02T10:51:57.053Z,96.39
2018-10-02T10:53:00.600Z,96.41
2018-10-02T10:54:03.315Z,96.50
2018-10-02T10:55:06.582Z,96.23
2018-10-02T10:56:10.565Z,96.59
2018-10-02T10:58:26.423Z,96.61
2018-10-02T10:59:31.569Z,96.75
2018-10-02T11:00:37.466Z,96.20
2018-10-02T11:01:43.546Z,96.57
2018-10-02T11:02:50.496Z,96.24
2018-10-02T11:03:55.552Z,96.29
2018-10-02T11:05:02.136Z,96.38
2018-10-02T11:06:08.299Z,96.58
2018-10-02T11:07:11.090Z,96.55
2018-10-02T11:08:14.530Z,97.04
2018-10-02T11:09:17.337Z,97.12
2018-10-02T11:10:20.901Z,97.35
2018-10-02T11:11:25.422Z,97.24
2018-10-02T11:12:28.436Z,97.13
2018-10-02T11:13:32.447Z,97.46
2018-10-02T11:14:36.779Z,97.25
2018-10-02T11:15:39.566Z,97.66
2018-10-02T11:16:42.637Z,97.67
2018-10-02T11:17:46.786Z,97.40
2018-10-02T11:19:59.968Z,97.51
2018-10-02T11:21:03.234Z,97.70
2018-10-02T11:22:12.255Z,97.28
2018-10-02T11:23:16.335Z,97.67
2018-10-02T11:24:20.458Z,97.90
2018-10-02T11:25:24.233Z,97.75
2018-10-02T11:26:27.684Z,97.85
2018-10-02T11:27:32.313Z,97.77
2018-10-02T11:28:37.862Z,97.88
2018-10-02T11:29:46.348Z,97.94
2018-10-02T11:30:50.257Z,97.84
2018-10-02T11:31:54.328Z,97.77
2018-10-02T11:32:59.084Z,97.71
2018-10-02T11:34:04.506Z,97.99
2018-10-02T11:35:07.932Z,98.04
2018-10-02T11:36:11.624Z,98.42
2018-10-02T11:37:20.480Z,97.97
2018-10-02T11:38:24.773Z,97.86
2018-10-02T11:39:27.642Z,97.77
2018-10-02T11:40:30.445Z,97.83
2018-10-02T11:41:34.499Z,97.55
2018-10-02T11:42:38.512Z,97.75
2018-10-02T11:43:41.612Z,97.88
2018-10-02T11:44:45.340Z,97.74
2018-10-02T11:45:49.070Z,97.94
2018-10-02T11:48:08.622Z,97.64
2018-10-02T11:49:11.415Z,97.90
2018-10-02T11:50:15.730Z,98.17
2018-10-02T11:51:20.573Z,98.39
2018-10-02T11:52:30.093Z,98.28
2018-10-02T11:53:33.336Z,97.95
2018-10-02T11:54:37.214Z,98.26
2018-10-02T11:55:40.661Z,97.96
2018-10-02T11:56:44.426Z,98.27
2018-10-02T11:57:47.143Z,98.17
2018-10-02T11:58:50.284Z,98.06
2018-10-02T11:59:54.953Z,98.24
2018-10-02T12:00:59.420Z,98.21
2018-10-02T12:02:03.634Z,98.22
2018-10-02T12:03:06.979Z,98.29
2018-10-02T12:04:09.837Z,98.27
2018-10-02T12:05:13.801Z,98.40
2018-10-02T12:06:17.561Z,98.27
2018-10-02T12:07:26.374Z,98.24
2018-10-02T12:08:29.246Z,98.26
2018-10-02T12:09:32.605Z,98.15
2018-10-02T12:10:38.224Z,98.47
2018-10-02T12:11:44.507Z,98.34
2018-10-02T12:12:49.147Z,98.28
2018-10-02T12:13:53.097Z,98.22
2018-10-02T12:14:57.607Z,98.29
2018-10-02T12:16:03.680Z,98.22
2018-10-02T12:17:06.996Z,98.08
2018-10-02T12:18:11.555Z,98.27
2018-10-02T12:19:16.727Z,98.11
2018-10-02T12:20:20.651Z,98.03
2018-10-02T12:21:24.019Z,98.15
2018-10-02T12:22:28.102Z,98.16
2018-10-02T12:23:31.652Z,98.29
2018-10-02T12:24:37.369Z,98.28
2018-10-02T12:25:46.545Z,98.51
2018-10-02T12:26:51.723Z,98.43
2018-10-02T12:27:54.721Z,98.24
2018-10-02T12:28:57.665Z,98.48
2018-10-02T12:30:00.770Z,98.29
2018-10-02T12:32:15.621Z,98.55
2018-10-02T12:33:19.401Z,98.57
2018-10-02T12:34:23.577Z,98.56
2018-10-02T12:35:26.274Z,98.52
2018-10-02T12:36:30.777Z,98.49
2018-10-02T12:37:35.222Z,98.42
2018-10-02T12:38:39.531Z,98.57
2018-10-02T12:39:43.357Z,98.64
2018-10-02T12:40:47.389Z,98.64
2018-10-02T12:41:51.601Z,98.58
2018-10-02T12:42:55.848Z,98.54
2018-10-02T12:43:58.569Z,98.52
2018-10-02T12:45:02.561Z,98.22
2018-10-02T12:46:05.246Z,98.68
2018-10-02T12:47:09.382Z,98.42
2018-10-02T12:49:22.653Z,98.40
2018-10-02T12:50:27.491Z,98.45
2018-10-02T12:51:30.412Z,98.41
2018-10-02T12:52:34.045Z,98.33
2018-10-02T12:53:41.936Z,98.38
2018-10-02T12:54:46.567Z,98.39
2018-10-02T12:55:50.163Z,98.33
2018-10-02T12:56:54.479Z,98.36
2018-10-02T12:57:57.224Z,98.68
2018-10-02T12:59:02.291Z,98.61
2018-10-02T13:00:09.853Z,98.46
2018-10-02T13:01:14.056Z,98.29
2018-10-02T13:02:16.758Z,98.56
2018-10-02T13:03:21.896Z,98.42
2018-10-02T13:04:25.538Z,98.66
2018-10-02T13:05:30.599Z,98.64
2018-10-02T13:06:38.401Z,98.64
2018-10-02T13:07:46.752Z,98.92
2018-10-02T13:08:50.734Z,98.76
2018-10-02T13:09:55.143Z,98.79
2018-10-02T13:11:00.378Z,98.57
2018-10-02T13:12:04.734Z,98.51
2018-10-02T13:13:08.124Z,98.76
2018-10-02T13:14:11.969Z,98.66
2018-10-02T13:15:15.361Z,98.81
2018-10-02T13:16:19.035Z,99.28
2018-10-02T13:17:22.600Z,98.93
2018-10-02T13:18:25.468Z,98.86
2018-10-02T13:19:29.403Z,98.90
2018-10-02T13:20:34.644Z,98.96
2018-10-02T13:21:38.975Z,99.11
2018-10-02T13:22:42.793Z,98.98
2018-10-02T13:23:50.571Z,98.81
2018-10-02T13:24:53.513Z,98.98
2018-10-02T13:26:01.910Z,98.69
2018-10-02T13:27:07.827Z,98.95
2018-10-02T13:28:27.424Z,99.33
2018-10-02T13:29:33.481Z,98.87
2018-10-02T13:30:38.343Z,98.68
2018-10-02T13:31:41.963Z,99.01
2018-10-02T13:32:48.699Z,98.98
2018-10-02T13:33:51.706Z,99.07
2018-10-02T13:36:02.950Z,99.04
2018-10-02T13:37:06.480Z,99.22
2018-10-02T13:38:12.152Z,99.61
2018-10-02T13:39:20.486Z,99.26
2018-10-02T13:40:23.745Z,99.81
2018-10-02T13:41:28.239Z,99.94
2018-10-02T13:42:35.532Z,99.83
2018-10-02T13:43:40.400Z,99.76
2018-10-02T13:44:49.264Z,99.69
2018-10-02T13:45:55.171Z,99.57
2018-10-02T13:46:58.691Z,99.36
2018-10-02T13:48:02.433Z,99.78
2018-10-02T13:49:07.067Z,99.67
2018-10-02T13:50:10.516Z,99.39
2018-10-02T13:51:13.540Z,99.91
2018-10-02T13:52:16.443Z,99.72
2018-10-02T13:53:19.138Z,99.79
2018-10-02T13:54:22.870Z,99.87
2018-10-02T13:55:27.007Z,99.79
2018-10-02T13:56:31.541Z,99.78
2018-10-02T13:57:34.554Z,99.78
2018-10-02T13:58:38.348Z,99.90
2018-10-02T13:59:42.668Z,100.00
2018-10-02T14:00:46.255Z,99.81
2018-10-02T14:01:49.768Z,99.94
2018-10-02T14:02:52.572Z,99.69
2018-10-02T14:03:57.686Z,99.80
2018-10-02T14:05:00.377Z,100.00
2018-10-02T14:06:07.400Z,99.75
2018-10-02T14:07:12.150Z,99.98
2018-10-02T14:08:17.674Z,100.00
2018-10-02T14:09:22.515Z,100.00
2018-10-02T14:10:27.184Z,100.00
2018-10-02T14:11:29.899Z,100.00
2018-10-02T14:12:34.247Z,100.00
2018-10-02T14:13:37.339Z,100.00
2018-10-02T14:14:41.960Z,100.00
2018-10-02T14:15:45.430Z,100.00
2018-10-02T14:16:50.049Z,100.00
2018-10-02T14:17:53.581Z,100.00
2018-10-02T14:18:57.527Z,100.00
2018-10-02T14:20:02.005Z,100.00
2018-10-02T14:21:07.839Z,100.00
2018-10-02T14:22:15.321Z,100.00
2018-10-02T14:23:18.363Z,100.00
2018-10-02T14:24:23.276Z,100.00